sensor_id;sensor_type;location;lat;lon;timestamp;pressure;altitude;pressure_sealevel;temperature;humidity
10176;BME280;18221;38.704;0.152;2023-05-07T00:56:10;98681.47;;;23.68;35.41
10176;BME280;18221;38.704;0.152;2023-05-07T00:59:05;98671.97;;;23.77;36.49
10176;BME280;18221;38.704;0.152;2023-05-07T01:01:42;98672.31;;;23.80;34.89
10176;BME280;18221;38.704;0.152;2023-05-07T01:04:31;98673.06;;;23.99;33.80
10176;BME280;18221;38.704;0.152;2023-05-07T01:07:06;98660.34;;;24.00;31.34
10176;BME280;18221;38.704;0.152;2023-05-07T01:09:40;98661.84;;;23.84;31.49
10176;BME280;18221;38.704;0.152;2023-05-07T01:12:11;98665.28;;;23.31;39.46
10176;BME280;18221;38.704;0.152;2023-05-07T01:14:41;98667.59;;;23.16;42.36
10176;BME280;18221;38.704;0.152;2023-05-07T01:17:12;98668.59;;;22.86;44.77
10176;BME280;18221;38.704;0.152;2023-05-07T01:19:41;98661.38;;;22.80;45.42
10176;BME280;18221;38.704;0.152;2023-05-07T01:22:25;98665.75;;;22.62;45.72
10176;BME280;18221;38.704;0.152;2023-05-07T01:25:03;98655.91;;;22.68;45.58
10176;BME280;18221;38.704;0.152;2023-05-07T01:27:34;98657.22;;;22.59;45.63
10176;BME280;18221;38.704;0.152;2023-05-07T01:30:08;98661.59;;;22.60;45.65
10176;BME280;18221;38.704;0.152;2023-05-07T01:32:46;98666.59;;;22.56;45.21
10176;BME280;18221;38.704;0.152;2023-05-07T01:35:22;98661.47;;;22.73;44.94
10176;BME280;18221;38.704;0.152;2023-05-07T01:37:58;98655.06;;;22.67;45.09
10176;BME280;18221;38.704;0.152;2023-05-07T01:40:29;98660.47;;;22.67;44.84
10176;BME280;18221;38.704;0.152;2023-05-07T01:42:57;98652.47;;;22.54;45.10
10176;BME280;18221;38.704;0.152;2023-05-07T01:45:26;98647.13;;;22.48;45.64
10176;BME280;18221;38.704;0.152;2023-05-07T01:47:59;98641.41;;;22.56;45.48
10176;BME280;18221;38.704;0.152;2023-05-07T01:50:28;98639.63;;;22.50;45.89
10176;BME280;18221;38.704;0.152;2023-05-07T01:53:02;98641.50;;;22.49;46.06
10176;BME280;18221;38.704;0.152;2023-05-07T01:55:31;98639.44;;;22.45;46.12
10176;BME280;18221;38.704;0.152;2023-05-07T01:58:02;98640.72;;;22.67;45.24
10176;BME280;18221;38.704;0.152;2023-05-07T02:00:34;98647.31;;;22.71;44.32
10176;BME280;18221;38.704;0.152;2023-05-07T02:03:03;98651.91;;;22.89;44.04
10176;BME280;18221;38.704;0.152;2023-05-07T02:05:32;98666.72;;;23.04;43.22
10176;BME280;18221;38.704;0.152;2023-05-07T02:08:04;98664.44;;;23.19;42.45
10176;BME280;18221;38.704;0.152;2023-05-07T02:10:35;98666.81;;;23.27;41.58
10176;BME280;18221;38.704;0.152;2023-05-07T02:13:06;98677.13;;;23.37;41.03
10176;BME280;18221;38.704;0.152;2023-05-07T02:15:34;98675.84;;;23.40;41.17
10176;BME280;18221;38.704;0.152;2023-05-07T02:18:04;98680.44;;;23.39;41.17
10176;BME280;18221;38.704;0.152;2023-05-07T02:20:36;98676.69;;;23.40;41.38
10176;BME280;18221;38.704;0.152;2023-05-07T02:23:14;98678.47;;;23.46;41.22
10176;BME280;18221;38.704;0.152;2023-05-07T02:25:43;98668.22;;;23.48;40.88
10176;BME280;18221;38.704;0.152;2023-05-07T02:28:12;98675.41;;;23.43;41.10
10176;BME280;18221;38.704;0.152;2023-05-07T02:30:54;98679.63;;;23.39;41.82
10176;BME280;18221;38.704;0.152;2023-05-07T02:33:26;98683.38;;;23.38;42.23
10176;BME280;18221;38.704;0.152;2023-05-07T02:36:13;98695.47;;;23.35;42.77
10176;BME280;18221;38.704;0.152;2023-05-07T02:38:57;98688.63;;;23.32;43.11
10176;BME280;18221;38.704;0.152;2023-05-07T02:41:40;98699.72;;;23.13;43.81
10176;BME280;18221;38.704;0.152;2023-05-07T02:44:24;98700.41;;;23.08;44.14
10176;BME280;18221;38.704;0.152;2023-05-07T02:46:57;98707.09;;;23.06;44.10
10176;BME280;18221;38.704;0.152;2023-05-07T02:49:28;98709.66;;;23.01;44.34
10176;BME280;18221;38.704;0.152;2023-05-07T02:52:01;98708.00;;;23.00;44.83
10176;BME280;18221;38.704;0.152;2023-05-07T02:54:37;98698.91;;;22.94;45.11
10176;BME280;18221;38.704;0.152;2023-05-07T02:57:06;98703.25;;;22.77;45.75
10176;BME280;18221;38.704;0.152;2023-05-07T02:59:45;98716.66;;;22.72;46.21
10176;BME280;18221;38.704;0.152;2023-05-07T03:02:15;98715.44;;;22.68;46.36
10176;BME280;18221;38.704;0.152;2023-05-07T03:04:56;98713.50;;;22.75;46.37
10176;BME280;18221;38.704;0.152;2023-05-07T03:07:27;98720.38;;;22.71;46.23
10176;BME280;18221;38.704;0.152;2023-05-07T03:10:10;98715.81;;;22.71;46.38
10176;BME280;18221;38.704;0.152;2023-05-07T03:12:52;98719.63;;;22.64;46.96
10176;BME280;18221;38.704;0.152;2023-05-07T03:15:26;98719.69;;;22.57;47.46
10176;BME280;18221;38.704;0.152;2023-05-07T03:18:05;98719.44;;;22.59;47.91
10176;BME280;18221;38.704;0.152;2023-05-07T03:20:42;98724.28;;;22.57;48.56
10176;BME280;18221;38.704;0.152;2023-05-07T03:23:11;98727.25;;;22.49;49.38
10176;BME280;18221;38.704;0.152;2023-05-07T03:25:46;98727.69;;;22.46;49.86
10176;BME280;18221;38.704;0.152;2023-05-07T03:28:29;98734.97;;;22.45;49.96
10176;BME280;18221;38.704;0.152;2023-05-07T03:31:03;98733.47;;;22.31;50.42
10176;BME280;18221;38.704;0.152;2023-05-07T03:33:38;98733.63;;;22.36;50.62
10176;BME280;18221;38.704;0.152;2023-05-07T03:36:11;98732.03;;;22.29;51.20
10176;BME280;18221;38.704;0.152;2023-05-07T03:38:42;98728.09;;;22.25;51.61
10176;BME280;18221;38.704;0.152;2023-05-07T03:41:15;98734.19;;;22.13;52.13
10176;BME280;18221;38.704;0.152;2023-05-07T03:43:44;98732.56;;;22.12;52.36
10176;BME280;18221;38.704;0.152;2023-05-07T03:46:28;98729.34;;;21.97;52.87
10176;BME280;18221;38.704;0.152;2023-05-07T03:49:04;98734.50;;;22.05;52.64
10176;BME280;18221;38.704;0.152;2023-05-07T03:51:39;98740.06;;;22.10;52.88
10176;BME280;18221;38.704;0.152;2023-05-07T03:54:09;98735.88;;;22.14;52.99
10176;BME280;18221;38.704;0.152;2023-05-07T03:56:39;98733.44;;;22.06;53.83
10176;BME280;18221;38.704;0.152;2023-05-07T03:59:08;98729.97;;;21.99;54.09
10176;BME280;18221;38.704;0.152;2023-05-07T04:01:36;98719.91;;;22.06;53.98
10176;BME280;18221;38.704;0.152;2023-05-07T04:04:05;98716.44;;;21.99;53.85
10176;BME280;18221;38.704;0.152;2023-05-07T04:06:34;98716.09;;;21.83;54.31
10176;BME280;18221;38.704;0.152;2023-05-07T04:09:02;98719.25;;;21.86;54.51
10176;BME280;18221;38.704;0.152;2023-05-07T04:11:32;98716.09;;;21.83;54.43
10176;BME280;18221;38.704;0.152;2023-05-07T04:14:02;98728.47;;;22.03;54.10
10176;BME280;18221;38.704;0.152;2023-05-07T04:16:31;98727.00;;;22.07;53.65
10176;BME280;18221;38.704;0.152;2023-05-07T04:18:59;98734.19;;;22.13;53.10
10176;BME280;18221;38.704;0.152;2023-05-07T04:21:30;98730.28;;;22.09;52.98
10176;BME280;18221;38.704;0.152;2023-05-07T04:23:58;98743.38;;;22.12;52.70
10176;BME280;18221;38.704;0.152;2023-05-07T04:26:30;98745.59;;;22.22;52.26
10176;BME280;18221;38.704;0.152;2023-05-07T04:28:58;98741.56;;;22.31;51.86
10176;BME280;18221;38.704;0.152;2023-05-07T04:31:31;98758.59;;;22.32;51.47
10176;BME280;18221;38.704;0.152;2023-05-07T04:34:00;98749.03;;;22.36;51.26
10176;BME280;18221;38.704;0.152;2023-05-07T04:36:28;98769.94;;;22.22;51.50
10176;BME280;18221;38.704;0.152;2023-05-07T04:38:59;98778.88;;;22.23;51.12
10176;BME280;18221;38.704;0.152;2023-05-07T04:41:31;98783.09;;;21.87;51.11
10176;BME280;18221;38.704;0.152;2023-05-07T04:44:00;98801.38;;;22.17;50.21
10176;BME280;18221;38.704;0.152;2023-05-07T04:46:32;98805.81;;;22.36;49.58
10176;BME280;18221;38.704;0.152;2023-05-07T04:49:01;98806.09;;;22.28;49.90
10176;BME280;18221;38.704;0.152;2023-05-07T04:51:29;98808.47;;;22.18;50.42
10176;BME280;18221;38.704;0.152;2023-05-07T04:54:01;98806.69;;;22.05;51.10
10176;BME280;18221;38.704;0.152;2023-05-07T04:56:33;98798.25;;;21.88;51.85
10176;BME280;18221;38.704;0.152;2023-05-07T04:59:02;98786.81;;;21.86;52.20
10176;BME280;18221;38.704;0.152;2023-05-07T05:01:32;98790.41;;;21.67;53.09
10176;BME280;18221;38.704;0.152;2023-05-07T05:04:06;98800.72;;;21.83;53.16
10176;BME280;18221;38.704;0.152;2023-05-07T05:06:40;98791.13;;;21.49;54.05
10176;BME280;18221;38.704;0.152;2023-05-07T05:09:12;98791.91;;;21.63;53.92
10176;BME280;18221;38.704;0.152;2023-05-07T05:11:42;98779.72;;;21.41;54.62
10176;BME280;18221;38.704;0.152;2023-05-07T05:14:11;98789.50;;;21.42;54.43
10176;BME280;18221;38.704;0.152;2023-05-07T05:16:46;98801.28;;;21.54;54.24
10176;BME280;18221;38.704;0.152;2023-05-07T05:19:15;98818.69;;;21.71;53.99
10176;BME280;18221;38.704;0.152;2023-05-07T05:21:43;98810.81;;;21.63;54.22
10176;BME280;18221;38.704;0.152;2023-05-07T05:24:12;98827.41;;;21.73;54.41
10176;BME280;18221;38.704;0.152;2023-05-07T05:26:41;98829.84;;;21.88;54.02
10176;BME280;18221;38.704;0.152;2023-05-07T05:29:09;98834.84;;;21.84;54.56
10176;BME280;18221;38.704;0.152;2023-05-07T05:31:38;98827.97;;;21.88;54.51
10176;BME280;18221;38.704;0.152;2023-05-07T05:34:09;98832.53;;;21.94;54.64
10176;BME280;18221;38.704;0.152;2023-05-07T05:36:38;98831.03;;;21.98;54.86
10176;BME280;18221;38.704;0.152;2023-05-07T05:39:07;98841.56;;;22.13;54.85
10176;BME280;18221;38.704;0.152;2023-05-07T05:41:36;98834.91;;;22.16;54.98
10176;BME280;18221;38.704;0.152;2023-05-07T05:44:04;98822.84;;;22.11;55.17
10176;BME280;18221;38.704;0.152;2023-05-07T05:46:33;98832.81;;;21.73;56.00
10176;BME280;18221;38.704;0.152;2023-05-07T05:49:01;98816.84;;;21.65;55.94
10176;BME280;18221;38.704;0.152;2023-05-07T05:51:31;98812.22;;;21.15;55.30
10176;BME280;18221;38.704;0.152;2023-05-07T05:54:00;98825.53;;;20.83;52.62
10176;BME280;18221;38.704;0.152;2023-05-07T05:56:28;98834.50;;;20.64;50.83
10176;BME280;18221;38.704;0.152;2023-05-07T05:58:57;98831.19;;;20.69;49.40
10176;BME280;18221;38.704;0.152;2023-05-07T06:01:25;98841.94;;;20.75;48.49
10176;BME280;18221;38.704;0.152;2023-05-07T06:03:54;98845.28;;;20.64;46.96
10176;BME280;18221;38.704;0.152;2023-05-07T06:06:22;98838.63;;;20.86;45.34
10176;BME280;18221;38.704;0.152;2023-05-07T06:08:53;98827.41;;;20.89;43.36
10176;BME280;18221;38.704;0.152;2023-05-07T06:11:21;98816.63;;;20.96;41.37
10176;BME280;18221;38.704;0.152;2023-05-07T06:13:50;98816.19;;;20.92;40.65
10176;BME280;18221;38.704;0.152;2023-05-07T06:16:18;98820.34;;;20.88;41.84
10176;BME280;18221;38.704;0.152;2023-05-07T06:18:46;98813.47;;;21.06;40.40
10176;BME280;18221;38.704;0.152;2023-05-07T06:21:16;98819.69;;;21.26;38.12
10176;BME280;18221;38.704;0.152;2023-05-07T06:23:44;98841.94;;;21.79;41.81
10176;BME280;18221;38.704;0.152;2023-05-07T06:26:14;98847.16;;;21.74;46.22
10176;BME280;18221;38.704;0.152;2023-05-07T06:28:43;98858.38;;;21.71;44.72
10176;BME280;18221;38.704;0.152;2023-05-07T06:31:17;98860.91;;;21.59;40.49
10176;BME280;18221;38.704;0.152;2023-05-07T06:33:47;98860.44;;;21.75;38.36
10176;BME280;18221;38.704;0.152;2023-05-07T06:36:16;98856.88;;;21.81;36.76
10176;BME280;18221;38.704;0.152;2023-05-07T06:38:49;98867.84;;;21.99;36.64
10176;BME280;18221;38.704;0.152;2023-05-07T06:41:23;98871.88;;;22.22;36.20
10176;BME280;18221;38.704;0.152;2023-05-07T06:43:52;98873.59;;;22.47;34.97
10176;BME280;18221;38.704;0.152;2023-05-07T06:46:20;98909.81;;;23.02;34.51
10176;BME280;18221;38.704;0.152;2023-05-07T06:48:51;98917.41;;;23.43;36.60
10176;BME280;18221;38.704;0.152;2023-05-07T06:51:33;98925.47;;;23.68;37.32
10176;BME280;18221;38.704;0.152;2023-05-07T06:54:02;98929.91;;;23.62;38.06
10176;BME280;18221;38.704;0.152;2023-05-07T06:56:43;98930.81;;;23.56;38.43
10176;BME280;18221;38.704;0.152;2023-05-07T06:59:34;98912.28;;;23.71;38.06
10176;BME280;18221;38.704;0.152;2023-05-07T07:02:11;98915.25;;;23.70;37.28
10176;BME280;18221;38.704;0.152;2023-05-07T07:04:44;98900.91;;;23.81;37.14
10176;BME280;18221;38.704;0.152;2023-05-07T07:07:20;98877.03;;;23.89;36.68
10176;BME280;18221;38.704;0.152;2023-05-07T07:09:53;98868.38;;;23.81;36.14
10176;BME280;18221;38.704;0.152;2023-05-07T07:12:40;98857.31;;;23.82;36.16
10176;BME280;18221;38.704;0.152;2023-05-07T07:15:30;98862.22;;;23.56;35.04
10176;BME280;18221;38.704;0.152;2023-05-07T07:18:28;98861.19;;;23.39;35.77
10176;BME280;18221;38.704;0.152;2023-05-07T07:21:05;98871.13;;;23.20;35.31
10176;BME280;18221;38.704;0.152;2023-05-07T07:23:41;98873.34;;;23.05;40.08
10176;BME280;18221;38.704;0.152;2023-05-07T07:26:32;98884.56;;;23.08;41.26
10176;BME280;18221;38.704;0.152;2023-05-07T07:30:08;98907.22;;;23.14;41.98
10176;BME280;18221;38.704;0.152;2023-05-07T07:32:52;98921.84;;;23.31;41.93
10176;BME280;18221;38.704;0.152;2023-05-07T07:35:40;98930.00;;;23.56;41.98
10176;BME280;18221;38.704;0.152;2023-05-07T07:38:22;98945.22;;;23.75;41.66
10176;BME280;18221;38.704;0.152;2023-05-07T07:40:59;98937.97;;;23.87;41.30
10176;BME280;18221;38.704;0.152;2023-05-07T07:43:33;98944.75;;;23.96;41.26
10176;BME280;18221;38.704;0.152;2023-05-07T07:46:18;98942.50;;;23.93;40.71
10176;BME280;18221;38.704;0.152;2023-05-07T07:49:01;98948.00;;;23.86;40.56
10176;BME280;18221;38.704;0.152;2023-05-07T07:51:50;98947.69;;;23.94;40.54
10176;BME280;18221;38.704;0.152;2023-05-07T07:54:35;98952.72;;;23.73;40.79
10176;BME280;18221;38.704;0.152;2023-05-07T07:57:23;98950.75;;;23.44;41.20
10176;BME280;18221;38.704;0.152;2023-05-07T08:03:16;98957.94;;;23.92;40.64
10176;BME280;18221;38.704;0.152;2023-05-07T08:27:34;98965.94;;;24.24;39.92
10176;BME280;18221;38.704;0.152;2023-05-07T08:30:23;98965.69;;;24.25;39.77
10176;BME280;18221;38.704;0.152;2023-05-07T08:33:36;98946.56;;;24.20;39.50
10176;BME280;18221;38.704;0.152;2023-05-07T08:36:27;98928.53;;;24.08;39.36
10176;BME280;18221;38.704;0.152;2023-05-07T08:42:52;98944.16;;;24.12;38.42
10176;BME280;18221;38.704;0.152;2023-05-07T08:45:54;98960.13;;;24.02;38.67
10176;BME280;18221;38.704;0.152;2023-05-07T08:56:23;98979.69;;;23.86;38.53
10176;BME280;18221;38.704;0.152;2023-05-07T08:59:23;98989.19;;;23.77;39.48
10176;BME280;18221;38.704;0.152;2023-05-07T09:02:03;99000.94;;;23.89;39.76
10176;BME280;18221;38.704;0.152;2023-05-07T09:05:02;98992.59;;;23.90;40.11
10176;BME280;18221;38.704;0.152;2023-05-07T09:07:48;99001.84;;;23.83;40.86
10176;BME280;18221;38.704;0.152;2023-05-07T09:40:28;99021.66;;;24.02;41.42
10176;BME280;18221;38.704;0.152;2023-05-07T09:43:14;99022.94;;;23.99;40.89
10176;BME280;18221;38.704;0.152;2023-05-07T09:46:14;99024.06;;;24.34;41.00
10176;BME280;18221;38.704;0.152;2023-05-07T09:56:33;99047.44;;;25.66;38.89
10176;BME280;18221;38.704;0.152;2023-05-07T10:15:14;99048.59;;;25.47;40.02
10176;BME280;18221;38.704;0.152;2023-05-07T10:33:22;99066.38;;;26.19;36.77
10176;BME280;18221;38.704;0.152;2023-05-07T10:36:34;99053.19;;;26.51;36.42
10176;BME280;18221;38.704;0.152;2023-05-07T10:39:45;99045.81;;;26.91;35.56
10176;BME280;18221;38.704;0.152;2023-05-07T10:43:06;99059.88;;;26.71;35.54
10176;BME280;18221;38.704;0.152;2023-05-07T10:46:28;99062.13;;;26.63;35.91
10176;BME280;18221;38.704;0.152;2023-05-07T10:57:47;99048.56;;;27.36;34.92
10176;BME280;18221;38.704;0.152;2023-05-07T11:01:03;99050.34;;;27.14;35.03
10176;BME280;18221;38.704;0.152;2023-05-07T11:36:59;99033.88;;;27.70;29.92
10176;BME280;18221;38.704;0.152;2023-05-07T11:39:53;99037.94;;;27.84;29.64
10176;BME280;18221;38.704;0.152;2023-05-07T11:42:51;99026.91;;;27.29;27.87
10176;BME280;18221;38.704;0.152;2023-05-07T11:45:50;99025.59;;;27.32;27.95
10176;BME280;18221;38.704;0.152;2023-05-07T11:52:03;99032.06;;;27.42;29.59
10176;BME280;18221;38.704;0.152;2023-05-07T11:54:55;99038.97;;;27.33;28.71
10176;BME280;18221;38.704;0.152;2023-05-07T11:57:51;99042.31;;;27.52;28.29
10176;BME280;18221;38.704;0.152;2023-05-07T12:05:32;99039.25;;;27.65;27.82
10176;BME280;18221;38.704;0.152;2023-05-07T12:08:49;99039.75;;;27.62;29.16
10176;BME280;18221;38.704;0.152;2023-05-07T12:11:41;99033.88;;;27.70;29.27
10176;BME280;18221;38.704;0.152;2023-05-07T12:14:51;99041.50;;;27.68;29.42
10176;BME280;18221;38.704;0.152;2023-05-07T12:17:54;99031.03;;;27.98;28.03
10176;BME280;18221;38.704;0.152;2023-05-07T12:28:08;99031.59;;;28.00;28.44
10176;BME280;18221;38.704;0.152;2023-05-07T12:30:54;99030.78;;;28.00;28.22
10176;BME280;18221;38.704;0.152;2023-05-07T12:34:16;99028.56;;;27.80;28.59
10176;BME280;18221;38.704;0.152;2023-05-07T12:40:49;99020.19;;;28.03;28.54
10176;BME280;18221;38.704;0.152;2023-05-07T12:50:37;99022.16;;;27.53;31.87
10176;BME280;18221;38.704;0.152;2023-05-07T12:53:47;99027.81;;;27.85;30.91
10176;BME280;18221;38.704;0.152;2023-05-07T12:56:42;99026.94;;;27.63;30.22
10176;BME280;18221;38.704;0.152;2023-05-07T12:59:45;99030.34;;;27.25;30.64
10176;BME280;18221;38.704;0.152;2023-05-07T13:14:05;99028.22;;;27.10;33.84
10176;BME280;18221;38.704;0.152;2023-05-07T13:25:01;99040.78;;;27.28;34.01
10176;BME280;18221;38.704;0.152;2023-05-07T13:28:09;99028.47;;;27.09;34.20
10176;BME280;18221;38.704;0.152;2023-05-07T13:31:20;99022.88;;;27.32;34.05
10176;BME280;18221;38.704;0.152;2023-05-07T15:17:38;98999.22;;;29.22;26.90
10176;BME280;18221;38.704;0.152;2023-05-07T15:21:05;98991.59;;;29.24;25.43
10176;BME280;18221;38.704;0.152;2023-05-07T15:43:00;99012.63;;;28.97;26.43
10176;BME280;18221;38.704;0.152;2023-05-07T15:50:14;99020.00;;;29.23;25.50
10176;BME280;18221;38.704;0.152;2023-05-07T15:57:17;99026.34;;;28.75;25.34
10176;BME280;18221;38.704;0.152;2023-05-07T18:52:55;99155.56;;;26.86;28.46
10176;BME280;18221;38.704;0.152;2023-05-07T18:55:31;99152.72;;;26.81;28.64
10176;BME280;18221;38.704;0.152;2023-05-07T18:58:04;99173.69;;;26.69;29.91
10176;BME280;18221;38.704;0.152;2023-05-07T19:00:52;99170.88;;;26.64;30.50
10176;BME280;18221;38.704;0.152;2023-05-07T19:03:28;99182.13;;;26.45;31.63
10176;BME280;18221;38.704;0.152;2023-05-07T19:06:07;99181.53;;;26.43;32.35
10176;BME280;18221;38.704;0.152;2023-05-07T19:08:46;99182.00;;;26.40;32.36
10176;BME280;18221;38.704;0.152;2023-05-07T19:11:22;99185.66;;;26.33;31.53
10176;BME280;18221;38.704;0.152;2023-05-07T19:13:51;99187.59;;;26.33;30.75
10176;BME280;18221;38.704;0.152;2023-05-07T19:16:23;99185.06;;;26.31;31.09
10176;BME280;18221;38.704;0.152;2023-05-07T19:18:53;99182.94;;;26.33;31.20
10176;BME280;18221;38.704;0.152;2023-05-07T19:21:32;99184.50;;;26.29;31.11
10176;BME280;18221;38.704;0.152;2023-05-07T19:24:04;99195.00;;;26.26;30.97
10176;BME280;18221;38.704;0.152;2023-05-07T19:26:34;99193.84;;;26.22;31.04
10176;BME280;18221;38.704;0.152;2023-05-07T19:29:03;99205.19;;;26.19;30.96
10176;BME280;18221;38.704;0.152;2023-05-07T19:31:35;99209.81;;;26.18;31.03
10176;BME280;18221;38.704;0.152;2023-05-07T19:34:04;99207.56;;;26.15;31.40
10176;BME280;18221;38.704;0.152;2023-05-07T19:36:34;99216.22;;;26.12;31.23
10176;BME280;18221;38.704;0.152;2023-05-07T19:39:08;99214.50;;;26.11;31.59
10176;BME280;18221;38.704;0.152;2023-05-07T19:41:39;99216.28;;;26.06;31.57
10176;BME280;18221;38.704;0.152;2023-05-07T19:44:16;99224.06;;;26.02;32.58
10176;BME280;18221;38.704;0.152;2023-05-07T19:46:54;99226.78;;;25.91;33.32
10176;BME280;18221;38.704;0.152;2023-05-07T19:49:45;99238.72;;;25.90;34.23
10176;BME280;18221;38.704;0.152;2023-05-07T19:52:24;99229.59;;;25.84;34.69
10176;BME280;18221;38.704;0.152;2023-05-07T19:55:11;99244.41;;;26.00;34.95
10176;BME280;18221;38.704;0.152;2023-05-07T19:57:42;99245.72;;;25.97;35.20
10176;BME280;18221;38.704;0.152;2023-05-07T20:00:24;99252.81;;;25.98;35.56
10176;BME280;18221;38.704;0.152;2023-05-07T20:03:02;99264.41;;;25.94;35.40
10176;BME280;18221;38.704;0.152;2023-05-07T20:05:50;99263.66;;;25.87;36.12
10176;BME280;18221;38.704;0.152;2023-05-07T20:08:26;99270.53;;;25.41;39.14
10176;BME280;18221;38.704;0.152;2023-05-07T20:11:09;99276.59;;;25.07;40.35
10176;BME280;18221;38.704;0.152;2023-05-07T20:13:45;99284.16;;;24.87;40.96
10176;BME280;18221;38.704;0.152;2023-05-07T20:16:45;99293.72;;;24.89;40.05
10176;BME280;18221;38.704;0.152;2023-05-07T20:19:18;99292.00;;;24.70;40.18
10176;BME280;18221;38.704;0.152;2023-05-07T20:21:54;99291.09;;;24.58;40.74
10176;BME280;18221;38.704;0.152;2023-05-07T20:24:30;99294.84;;;24.32;43.47
10176;BME280;18221;38.704;0.152;2023-05-07T20:27:12;99291.75;;;24.29;44.81
10176;BME280;18221;38.704;0.152;2023-05-07T20:29:48;99287.75;;;24.31;45.07
10176;BME280;18221;38.704;0.152;2023-05-07T20:32:18;99289.22;;;23.96;45.76
10176;BME280;18221;38.704;0.152;2023-05-07T20:34:46;99282.16;;;24.26;44.57
10176;BME280;18221;38.704;0.152;2023-05-07T20:37:14;99280.63;;;24.37;44.10
10176;BME280;18221;38.704;0.152;2023-05-07T20:39:43;99277.50;;;24.33;44.63
10176;BME280;18221;38.704;0.152;2023-05-07T20:42:13;99284.94;;;24.44;44.14
10176;BME280;18221;38.704;0.152;2023-05-07T20:44:41;99295.38;;;24.41;44.26
10176;BME280;18221;38.704;0.152;2023-05-07T20:47:09;99305.22;;;24.42;44.60
10176;BME280;18221;38.704;0.152;2023-05-07T20:49:40;99299.28;;;24.51;44.21
10176;BME280;18221;38.704;0.152;2023-05-07T20:52:08;99307.13;;;24.60;43.66
10176;BME280;18221;38.704;0.152;2023-05-07T20:54:36;99301.88;;;24.40;44.73
10176;BME280;18221;38.704;0.152;2023-05-07T20:57:05;99308.78;;;24.11;45.47
10176;BME280;18221;38.704;0.152;2023-05-07T20:59:35;99305.31;;;24.29;44.83
10176;BME280;18221;38.704;0.152;2023-05-07T21:02:07;99302.94;;;24.14;43.99
10176;BME280;18221;38.704;0.152;2023-05-07T21:04:36;99310.22;;;24.07;44.78
10176;BME280;18221;38.704;0.152;2023-05-07T21:07:04;99317.97;;;24.10;43.21
10176;BME280;18221;38.704;0.152;2023-05-07T21:09:32;99323.72;;;24.20;44.03
10176;BME280;18221;38.704;0.152;2023-05-07T21:12:00;99325.69;;;23.69;45.87
10176;BME280;18221;38.704;0.152;2023-05-07T21:14:28;99332.19;;;23.61;47.87
10176;BME280;18221;38.704;0.152;2023-05-07T21:16:58;99337.81;;;23.60;49.03
10176;BME280;18221;38.704;0.152;2023-05-07T21:19:27;99341.03;;;23.30;50.48
10176;BME280;18221;38.704;0.152;2023-05-07T21:21:55;99350.81;;;23.31;50.56
10176;BME280;18221;38.704;0.152;2023-05-07T21:24:24;99350.41;;;23.34;50.38
10176;BME280;18221;38.704;0.152;2023-05-07T21:26:53;99353.53;;;23.31;50.28
10176;BME280;18221;38.704;0.152;2023-05-07T21:29:22;99348.13;;;23.18;50.54
10176;BME280;18221;38.704;0.152;2023-05-07T21:31:50;99347.53;;;23.23;50.48
10176;BME280;18221;38.704;0.152;2023-05-07T21:34:20;99350.47;;;23.08;50.82
10176;BME280;18221;38.704;0.152;2023-05-07T21:36:48;99349.44;;;23.03;50.67
10176;BME280;18221;38.704;0.152;2023-05-07T21:39:16;99343.81;;;23.04;50.70
10176;BME280;18221;38.704;0.152;2023-05-07T21:41:44;99348.75;;;23.20;50.22
10176;BME280;18221;38.704;0.152;2023-05-07T21:44:12;99354.03;;;22.96;50.97
10176;BME280;18221;38.704;0.152;2023-05-07T21:46:40;99350.06;;;22.92;51.30
10176;BME280;18221;38.704;0.152;2023-05-07T21:49:08;99356.31;;;22.92;51.14
10176;BME280;18221;38.704;0.152;2023-05-07T21:51:39;99359.88;;;22.86;51.41
10176;BME280;18221;38.704;0.152;2023-05-07T21:54:07;99361.28;;;23.08;51.08
10176;BME280;18221;38.704;0.152;2023-05-07T21:56:35;99364.63;;;23.10;51.05
10176;BME280;18221;38.704;0.152;2023-05-07T21:59:03;99362.56;;;23.06;51.28
10176;BME280;18221;38.704;0.152;2023-05-07T22:01:31;99362.13;;;23.02;51.52
10176;BME280;18221;38.704;0.152;2023-05-07T22:03:59;99364.63;;;22.97;51.88
10176;BME280;18221;38.704;0.152;2023-05-07T22:06:27;99361.72;;;22.92;51.90
10176;BME280;18221;38.704;0.152;2023-05-07T22:08:58;99375.06;;;23.00;52.05
10176;BME280;18221;38.704;0.152;2023-05-07T22:11:26;99370.50;;;22.94;52.14
10176;BME280;18221;38.704;0.152;2023-05-07T22:13:54;99375.06;;;23.07;51.94
10176;BME280;18221;38.704;0.152;2023-05-07T22:16:22;99369.81;;;23.18;51.51
10176;BME280;18221;38.704;0.152;2023-05-07T22:18:50;99376.13;;;22.80;52.19
10176;BME280;18221;38.704;0.152;2023-05-07T22:21:18;99368.41;;;22.90;52.19
10176;BME280;18221;38.704;0.152;2023-05-07T22:23:47;99378.41;;;22.83;52.55
10176;BME280;18221;38.704;0.152;2023-05-07T22:26:17;99370.91;;;22.71;52.96
10176;BME280;18221;38.704;0.152;2023-05-07T22:28:45;99377.16;;;22.72;52.99
10176;BME280;18221;38.704;0.152;2023-05-07T22:31:13;99375.94;;;22.68;52.90
10176;BME280;18221;38.704;0.152;2023-05-07T22:33:40;99379.88;;;22.65;53.55
10176;BME280;18221;38.704;0.152;2023-05-07T22:36:09;99375.91;;;22.55;53.86
10176;BME280;18221;38.704;0.152;2023-05-07T22:38:37;99379.88;;;22.72;53.26
10176;BME280;18221;38.704;0.152;2023-05-07T22:41:05;99373.41;;;22.60;53.44
10176;BME280;18221;38.704;0.152;2023-05-07T22:43:34;99372.75;;;22.45;54.05
10176;BME280;18221;38.704;0.152;2023-05-07T22:46:03;99367.75;;;22.48;54.20
10176;BME280;18221;38.704;0.152;2023-05-07T22:48:32;99365.47;;;22.58;54.13
10176;BME280;18221;38.704;0.152;2023-05-07T22:51:00;99380.03;;;22.31;54.30
10176;BME280;18221;38.704;0.152;2023-05-07T22:53:28;99385.19;;;22.20;54.79
10176;BME280;18221;38.704;0.152;2023-05-07T22:55:56;99397.66;;;22.07;54.71
10176;BME280;18221;38.704;0.152;2023-05-07T22:58:24;99397.84;;;21.99;54.91
10176;BME280;18221;38.704;0.152;2023-05-07T23:00:54;99390.94;;;21.90;55.31
10176;BME280;18221;38.704;0.152;2023-05-07T23:03:22;99392.84;;;21.96;54.90